createdAt,value
2016-11-08T00:01:44.500Z,0
2016-11-08T00:02:26.173Z,0
2016-11-08T00:04:57.233Z,0
2016-11-08T00:07:33.811Z,0
2016-11-08T00:08:15.498Z,0
2016-11-08T00:08:57.146Z,0
2016-11-08T00:09:38.710Z,0
2016-11-08T00:11:38.718Z,0
2016-11-08T00:12:20.480Z,0
2016-11-08T00:13:02.122Z,0
2016-11-08T00:13:43.780Z,0
2016-11-08T00:14:25.468Z,0
2016-11-08T00:15:07.088Z,0
2016-11-08T00:15:48.723Z,0
2016-11-08T00:16:30.455Z,0
2016-11-08T00:17:12.214Z,0
2016-11-08T00:17:54.043Z,0
2016-11-08T00:18:35.663Z,0
2016-11-08T00:19:17.279Z,0
2016-11-08T00:19:58.835Z,0
2016-11-08T00:22:35.191Z,0
2016-11-08T00:24:35.225Z,0
2016-11-08T00:25:16.992Z,0
2016-11-08T00:25:58.525Z,0
2016-11-08T00:26:40.271Z,0
2016-11-08T00:27:22.015Z,0
2016-11-08T00:28:03.753Z,0
2016-11-08T00:30:40.055Z,0
2016-11-08T00:31:21.749Z,0
2016-11-08T00:32:03.467Z,0
2016-11-08T00:32:45.190Z,0
2016-11-08T00:33:26.857Z,0
2016-11-08T00:35:57.941Z,0
2016-11-08T00:36:39.659Z,0
2016-11-08T00:37:21.409Z,0
2016-11-08T00:38:03.140Z,0
2016-11-08T00:38:44.873Z,0
2016-11-08T00:39:26.524Z,0
2016-11-08T00:40:08.295Z,0
2016-11-08T00:40:50.003Z,0
2016-11-08T00:41:31.553Z,0
2016-11-08T00:42:13.188Z,0
2016-11-08T00:46:23.331Z,0
2016-11-08T00:47:05.047Z,0
2016-11-08T00:49:41.432Z,0
2016-11-08T00:51:41.484Z,0
2016-11-08T00:52:23.196Z,0
2016-11-08T00:53:04.807Z,0
2016-11-08T00:53:46.573Z,0
2016-11-08T00:54:28.246Z,0
2016-11-08T00:56:43.670Z,0
2016-11-08T00:57:25.243Z,0
2016-11-08T00:58:06.937Z,0
2016-11-08T01:00:38.130Z,0
2016-11-08T01:01:19.108Z,0
2016-11-08T01:02:00.157Z,0
2016-11-08T01:02:41.570Z,0
2016-11-08T01:03:23.211Z,0
2016-11-08T01:04:04.918Z,0
2016-11-08T01:04:46.388Z,0
2016-11-08T01:05:27.837Z,0
2016-11-08T01:06:09.486Z,0
2016-11-08T01:06:51.121Z,0
2016-11-08T01:07:32.833Z,0
2016-11-08T01:08:14.480Z,0
2016-11-08T01:08:56.155Z,0
2016-11-08T01:09:37.808Z,0
2016-11-08T01:10:20.365Z,0
2016-11-08T01:12:40.858Z,0
2016-11-08T01:14:56.109Z,0
2016-11-08T01:17:32.397Z,0
2016-11-08T01:18:14.047Z,0
2016-11-08T01:20:14.118Z,0
2016-11-08T01:20:55.824Z,0
2016-11-08T01:21:37.530Z,0
2016-11-08T01:23:52.876Z,0
2016-11-08T01:24:34.561Z,0
2016-11-08T01:25:16.301Z,0
2016-11-08T01:25:58.014Z,0
2016-11-08T01:26:39.700Z,0
2016-11-08T01:27:21.453Z,0
2016-11-08T01:28:03.126Z,0
2016-11-08T01:28:44.814Z,0
2016-11-08T01:29:26.528Z,0
2016-11-08T01:30:08.201Z,0
2016-11-08T01:30:49.975Z,0
2016-11-08T01:31:31.633Z,0
2016-11-08T01:32:13.408Z,0
2016-11-08T01:32:55.020Z,0
2016-11-08T01:35:26.043Z,0
2016-11-08T01:38:02.522Z,0
2016-11-08T01:38:44.250Z,0
2016-11-08T01:41:15.428Z,0
2016-11-08T01:41:56.966Z,0
2016-11-08T01:44:28.008Z,0
2016-11-08T01:45:09.776Z,0
2016-11-08T01:45:51.504Z,0
2016-11-08T01:46:33.200Z,0
2016-11-08T01:47:14.800Z,0
2016-11-08T01:49:51.313Z,0
2016-11-08T01:50:33.010Z,0
2016-11-08T01:53:09.464Z,0
2016-11-08T01:53:51.162Z,0
2016-11-08T01:54:32.802Z,0
2016-11-08T01:56:32.858Z,0
2016-11-08T01:57:14.604Z,0
2016-11-08T01:57:56.331Z,0
2016-11-08T01:58:37.942Z,0
2016-11-08T01:59:19.677Z,0
2016-11-08T02:01:50.774Z,0
2016-11-08T02:02:32.533Z,0
2016-11-08T02:03:14.078Z,0
2016-11-08T02:03:55.777Z,0
2016-11-08T02:04:36.303Z,0
2016-11-08T02:05:16.822Z,0
2016-11-08T02:05:57.341Z,0
2016-11-08T02:06:37.855Z,0
2016-11-08T02:07:18.366Z,0
2016-11-08T02:07:58.871Z,0
2016-11-08T02:08:39.402Z,0
2016-11-08T02:09:19.928Z,0
2016-11-08T02:10:00.456Z,0
2016-11-08T02:10:40.972Z,0
2016-11-08T02:11:21.477Z,0
2016-11-08T02:12:02.010Z,0
2016-11-08T02:12:42.519Z,0
2016-11-08T02:13:23.054Z,0
2016-11-08T02:14:03.559Z,0
2016-11-08T02:14:44.067Z,0
2016-11-08T02:15:24.571Z,0
2016-11-08T02:16:05.076Z,0
2016-11-08T02:16:45.578Z,0
2016-11-08T02:17:26.101Z,0
2016-11-08T02:18:06.589Z,0
2016-11-08T02:18:47.100Z,0
2016-11-08T02:19:27.609Z,0
2016-11-08T02:20:08.143Z,0
2016-11-08T02:20:48.664Z,0
2016-11-08T02:21:29.184Z,0
2016-11-08T02:22:09.689Z,0
2016-11-08T02:22:50.182Z,0
2016-11-08T02:23:30.699Z,0
2016-11-08T02:24:11.215Z,0
2016-11-08T02:24:51.748Z,0
2016-11-08T02:25:32.290Z,0
2016-11-08T02:26:12.813Z,0
2016-11-08T02:26:53.343Z,0
2016-11-08T02:27:33.878Z,0
2016-11-08T02:28:14.436Z,0
2016-11-08T02:28:54.920Z,0
2016-11-08T02:29:35.440Z,0
2016-11-08T02:30:15.956Z,0
2016-11-08T02:30:56.454Z,0
2016-11-08T02:31:36.977Z,0
2016-11-08T02:32:17.508Z,0
2016-11-08T02:32:58.024Z,0
2016-11-08T02:33:38.551Z,0
2016-11-08T02:34:19.069Z,0
2016-11-08T02:34:59.573Z,0
2016-11-08T02:35:40.091Z,0
2016-11-08T02:36:20.613Z,0
2016-11-08T02:37:01.147Z,0
2016-11-08T02:37:41.671Z,0
2016-11-08T02:38:22.197Z,0
2016-11-08T02:39:02.722Z,0
2016-11-08T02:39:43.237Z,0
2016-11-08T02:40:23.754Z,0
2016-11-08T02:41:04.283Z,0
2016-11-08T02:41:44.820Z,0
2016-11-08T02:42:25.326Z,0
2016-11-08T02:43:05.841Z,0
2016-11-08T02:43:46.366Z,0
2016-11-08T02:44:26.890Z,0
2016-11-08T02:45:07.382Z,0
2016-11-08T02:45:47.909Z,0
2016-11-08T02:46:28.408Z,0
2016-11-08T02:47:08.903Z,0
2016-11-08T02:47:49.422Z,0
2016-11-08T02:48:29.935Z,0
2016-11-08T02:49:10.446Z,0
2016-11-08T02:49:50.946Z,0
2016-11-08T02:50:31.450Z,0
2016-11-08T02:51:11.974Z,0
2016-11-08T02:51:52.484Z,0
2016-11-08T02:52:33.011Z,0
2016-11-08T02:53:13.504Z,0
2016-11-08T02:53:54.058Z,0
2016-11-08T02:54:34.567Z,0
2016-11-08T02:55:15.093Z,0
2016-11-08T02:55:55.599Z,0
2016-11-08T02:56:36.112Z,0
2016-11-08T02:57:16.625Z,0
2016-11-08T02:57:57.173Z,0
2016-11-08T02:58:37.700Z,0
2016-11-08T02:59:18.223Z,0
2016-11-08T02:59:58.723Z,0
2016-11-08T03:00:39.230Z,0
2016-11-08T03:01:19.766Z,0
2016-11-08T03:02:00.267Z,0
2016-11-08T03:02:40.781Z,0
2016-11-08T03:03:21.300Z,0
2016-11-08T03:04:01.786Z,0
2016-11-08T03:04:42.305Z,0
2016-11-08T03:05:22.814Z,0
2016-11-08T03:06:03.319Z,0
2016-11-08T03:06:43.844Z,0
2016-11-08T03:07:24.333Z,0
2016-11-08T03:08:04.847Z,0
2016-11-08T03:08:45.364Z,0
2016-11-08T03:09:25.887Z,0
2016-11-08T03:10:06.390Z,0
2016-11-08T03:10:46.879Z,0
2016-11-08T03:11:27.410Z,0
2016-11-08T03:12:07.932Z,0
2016-11-08T03:12:48.441Z,0
2016-11-08T03:13:28.954Z,0
2016-11-08T03:14:09.455Z,0
2016-11-08T03:14:49.963Z,0
2016-11-08T03:15:30.472Z,0
2016-11-08T03:16:11.006Z,0
2016-11-08T03:16:51.514Z,0
2016-11-08T03:17:32.038Z,0
2016-11-08T03:18:12.567Z,0
2016-11-08T03:18:53.073Z,0
2016-11-08T03:19:33.600Z,0
2016-11-08T03:20:14.122Z,0
2016-11-08T03:20:54.635Z,0
2016-11-08T03:21:35.153Z,0
2016-11-08T03:22:15.672Z,0
2016-11-08T03:22:56.196Z,0
2016-11-08T03:23:36.713Z,0
2016-11-08T03:24:17.248Z,0
2016-11-08T03:24:57.762Z,0
2016-11-08T03:25:38.298Z,0
2016-11-08T03:26:18.815Z,0
2016-11-08T03:26:59.344Z,0
2016-11-08T03:27:39.861Z,0
2016-11-08T03:28:20.397Z,0
2016-11-08T03:29:00.932Z,0
2016-11-08T03:29:41.466Z,0
2016-11-08T03:30:21.990Z,0
2016-11-08T03:31:02.501Z,0
2016-11-08T03:31:43.027Z,0
2016-11-08T03:32:23.568Z,0
2016-11-08T03:33:04.092Z,0
2016-11-08T03:33:44.609Z,0
2016-11-08T03:34:25.152Z,0
2016-11-08T03:35:05.680Z,0
2016-11-08T03:35:46.218Z,0
2016-11-08T03:36:26.716Z,0
2016-11-08T03:37:07.245Z,0
2016-11-08T03:37:47.756Z,0
2016-11-08T03:38:28.264Z,0
2016-11-08T03:39:08.776Z,0
2016-11-08T03:39:49.311Z,0
2016-11-08T03:40:29.815Z,0
2016-11-08T03:41:10.332Z,0
2016-11-08T03:41:50.861Z,0
2016-11-08T03:42:31.363Z,0
2016-11-08T03:43:11.880Z,0
2016-11-08T03:43:52.372Z,0
2016-11-08T03:44:32.871Z,0
2016-11-08T03:45:13.367Z,0
2016-11-08T03:45:53.871Z,0
2016-11-08T03:46:34.373Z,0
2016-11-08T03:47:14.878Z,0
2016-11-08T03:47:55.413Z,0
2016-11-08T03:48:35.902Z,0
2016-11-08T03:49:16.429Z,0
2016-11-08T03:49:56.942Z,0
2016-11-08T03:50:37.444Z,0
2016-11-08T03:51:17.974Z,0
2016-11-08T03:51:58.473Z,0
2016-11-08T03:52:39.000Z,0
2016-11-08T03:53:19.522Z,0
2016-11-08T03:54:00.044Z,0
2016-11-08T03:54:40.577Z,0
2016-11-08T03:55:21.123Z,0
2016-11-08T03:56:01.643Z,0
2016-11-08T03:56:42.167Z,0
2016-11-08T03:57:22.763Z,0
2016-11-08T03:58:03.285Z,0
2016-11-08T03:58:43.802Z,0
2016-11-08T03:59:24.331Z,0
2016-11-08T04:00:04.862Z,0
2016-11-08T04:00:45.383Z,0
2016-11-08T04:01:25.916Z,0
2016-11-08T04:02:06.442Z,0
2016-11-08T04:02:46.962Z,0
2016-11-08T04:03:27.493Z,0
2016-11-08T04:04:07.988Z,0
2016-11-08T04:04:48.490Z,0
2016-11-08T04:05:29.024Z,0
2016-11-08T04:06:09.570Z,0
2016-11-08T04:06:50.078Z,0
2016-11-08T04:07:30.605Z,0
2016-11-08T04:08:11.110Z,0
2016-11-08T04:08:51.623Z,0
2016-11-08T04:09:32.139Z,0
2016-11-08T04:10:12.655Z,0
2016-11-08T04:10:53.178Z,0
2016-11-08T04:11:33.708Z,0
2016-11-08T04:12:14.218Z,0
2016-11-08T04:12:54.741Z,0
2016-11-08T04:13:35.247Z,0
2016-11-08T04:14:15.753Z,0
2016-11-08T04:14:56.271Z,0
2016-11-08T04:15:36.804Z,0
2016-11-08T04:16:17.316Z,0
2016-11-08T04:16:57.824Z,0
2016-11-08T04:17:38.337Z,0
2016-11-08T04:18:18.849Z,0
2016-11-08T04:18:59.420Z,0
2016-11-08T04:19:39.921Z,0
2016-11-08T04:20:20.431Z,0
2016-11-08T04:21:00.936Z,0
2016-11-08T04:21:41.427Z,0
2016-11-08T04:22:22.007Z,0
2016-11-08T04:23:02.535Z,0
2016-11-08T04:23:43.053Z,0
2016-11-08T04:24:23.536Z,0
2016-11-08T04:25:04.032Z,0
2016-11-08T04:25:44.574Z,0
2016-11-08T04:26:25.110Z,0
2016-11-08T04:27:05.626Z,0
2016-11-08T04:27:46.173Z,0
2016-11-08T04:28:26.674Z,0
2016-11-08T04:29:07.212Z,0
2016-11-08T04:29:47.734Z,0
2016-11-08T04:30:28.238Z,0
2016-11-08T04:31:08.797Z,0
2016-11-08T04:31:49.325Z,0
2016-11-08T04:32:29.838Z,0
2016-11-08T04:33:10.380Z,0
2016-11-08T04:33:50.892Z,0
2016-11-08T04:34:31.410Z,0
2016-11-08T04:35:11.927Z,0
2016-11-08T04:35:52.577Z,0
2016-11-08T04:36:33.064Z,0
2016-11-08T04:37:13.578Z,0
2016-11-08T04:37:54.083Z,0
2016-11-08T04:38:34.608Z,0
2016-11-08T04:39:15.141Z,0
2016-11-08T04:39:55.671Z,0
2016-11-08T04:40:36.152Z,0
2016-11-08T04:41:16.659Z,0
2016-11-08T04:41:57.181Z,0
2016-11-08T04:42:37.714Z,0
2016-11-08T04:43:18.239Z,0
2016-11-08T04:43:58.744Z,0
2016-11-08T04:44:39.268Z,0
2016-11-08T04:45:19.774Z,0
2016-11-08T04:46:00.312Z,0
2016-11-08T04:46:40.817Z,0
2016-11-08T04:47:21.393Z,0
2016-11-08T04:48:01.931Z,0
2016-11-08T04:48:42.439Z,0
2016-11-08T04:49:22.947Z,0
2016-11-08T04:50:03.478Z,0
2016-11-08T04:50:44.011Z,0
2016-11-08T04:51:24.535Z,0
2016-11-08T04:52:05.084Z,0
2016-11-08T04:52:45.586Z,0
2016-11-08T04:53:26.122Z,0
2016-11-08T04:54:06.660Z,0
2016-11-08T04:54:47.203Z,0
2016-11-08T04:55:27.706Z,0
2016-11-08T04:56:08.231Z,0
2016-11-08T04:56:48.763Z,0
2016-11-08T04:57:29.305Z,0
2016-11-08T04:58:09.838Z,0
2016-11-08T04:58:50.355Z,0
2016-11-08T04:59:30.879Z,0
2016-11-08T05:00:11.421Z,0
2016-11-08T05:00:51.968Z,0
2016-11-08T05:01:32.508Z,0
2016-11-08T05:02:13.043Z,0
2016-11-08T05:02:53.555Z,0
2016-11-08T05:03:34.106Z,0
2016-11-08T05:04:14.628Z,0
2016-11-08T05:04:55.135Z,0
2016-11-08T05:05:35.631Z,0
2016-11-08T05:06:16.149Z,0
2016-11-08T05:06:56.637Z,0
2016-11-08T05:07:37.184Z,0
2016-11-08T05:08:17.699Z,0
2016-11-08T05:08:58.211Z,0
2016-11-08T05:09:38.753Z,0
2016-11-08T05:10:19.277Z,0
2016-11-08T05:10:59.816Z,0
2016-11-08T05:11:40.333Z,0
2016-11-08T05:12:20.864Z,0
2016-11-08T05:13:01.393Z,0
2016-11-08T05:13:41.906Z,0
2016-11-08T05:14:22.433Z,0
2016-11-08T05:15:02.973Z,0
2016-11-08T05:15:43.503Z,0
2016-11-08T05:16:24.025Z,0
2016-11-08T05:17:04.542Z,0
2016-11-08T05:17:45.042Z,0
2016-11-08T05:18:25.542Z,0
2016-11-08T05:19:06.058Z,0
2016-11-08T05:19:46.587Z,0
2016-11-08T05:20:27.103Z,0
2016-11-08T05:21:07.765Z,0
2016-11-08T05:21:48.243Z,0
2016-11-08T05:22:28.783Z,0
2016-11-08T05:23:09.298Z,0
2016-11-08T05:23:49.829Z,0
2016-11-08T05:24:30.337Z,0
2016-11-08T05:25:10.855Z,0
2016-11-08T05:25:51.361Z,0
2016-11-08T05:26:31.886Z,0
2016-11-08T05:27:12.409Z,0
2016-11-08T05:27:52.934Z,0
2016-11-08T05:28:33.459Z,0
2016-11-08T05:29:13.970Z,0
2016-11-08T05:29:54.498Z,0
2016-11-08T05:30:35.007Z,0
2016-11-08T05:31:15.518Z,0
2016-11-08T05:31:56.047Z,0
2016-11-08T05:32:36.579Z,0
2016-11-08T05:33:17.100Z,0
2016-11-08T05:33:57.623Z,0
2016-11-08T05:34:38.151Z,0
2016-11-08T05:35:18.649Z,0
2016-11-08T05:35:59.184Z,0
2016-11-08T05:36:39.684Z,0
2016-11-08T05:37:20.233Z,0
2016-11-08T05:38:00.748Z,0
2016-11-08T05:38:41.276Z,0
2016-11-08T05:39:21.781Z,0
2016-11-08T05:40:02.322Z,0
2016-11-08T05:40:42.836Z,0
2016-11-08T05:41:23.356Z,68
2016-11-08T05:42:03.868Z,0
2016-11-08T05:42:44.405Z,0
2016-11-08T05:43:24.940Z,0
2016-11-08T05:44:05.500Z,0
2016-11-08T05:44:46.037Z,0
2016-11-08T05:47:00.251Z,0
2016-11-08T05:47:40.870Z,0
2016-11-08T05:48:21.387Z,0
2016-11-08T05:49:01.917Z,0
2016-11-08T05:49:42.452Z,0
2016-11-08T05:50:22.985Z,0
2016-11-08T05:51:03.492Z,0
2016-11-08T05:51:44.039Z,0
2016-11-08T05:52:24.572Z,0
2016-11-08T05:53:05.102Z,0
2016-11-08T05:53:45.638Z,0
2016-11-08T05:54:26.163Z,0
2016-11-08T05:55:06.699Z,0
2016-11-08T05:55:47.222Z,0
2016-11-08T05:56:27.757Z,0
2016-11-08T05:57:08.294Z,0
2016-11-08T05:57:48.805Z,0
2016-11-08T05:58:29.349Z,0
2016-11-08T05:59:09.914Z,0
2016-11-08T05:59:50.408Z,0
2016-11-08T06:00:30.951Z,0
2016-11-08T06:01:11.454Z,0
2016-11-08T06:01:51.974Z,0
2016-11-08T06:02:32.514Z,0
2016-11-08T06:03:13.040Z,0
2016-11-08T06:03:53.561Z,0
2016-11-08T06:04:34.130Z,0
2016-11-08T06:05:14.577Z,0
2016-11-08T06:05:55.087Z,0
2016-11-08T06:06:35.580Z,0
2016-11-08T06:07:16.091Z,0
2016-11-08T06:07:56.619Z,0
2016-11-08T06:08:37.190Z,0
2016-11-08T06:09:17.699Z,0
2016-11-08T06:09:58.208Z,0
2016-11-08T06:10:38.734Z,0
2016-11-08T06:11:19.249Z,0
2016-11-08T06:11:59.821Z,0
2016-11-08T06:12:40.339Z,0
2016-11-08T06:13:20.852Z,0
2016-11-08T06:14:01.383Z,0
2016-11-08T06:14:41.925Z,0
2016-11-08T06:15:22.449Z,0
2016-11-08T06:16:02.981Z,0
2016-11-08T06:16:43.502Z,0
2016-11-08T06:17:24.005Z,0
2016-11-08T06:18:04.563Z,0
2016-11-08T06:18:45.081Z,0
2016-11-08T06:19:25.607Z,0
2016-11-08T06:20:06.129Z,0
2016-11-08T06:20:46.659Z,0
2016-11-08T06:21:27.176Z,4
2016-11-08T06:22:07.713Z,4
2016-11-08T06:22:48.220Z,4
2016-11-08T06:23:28.729Z,4
2016-11-08T06:24:09.269Z,4
2016-11-08T06:24:49.793Z,4
2016-11-08T06:25:30.318Z,4
2016-11-08T06:26:10.845Z,4
2016-11-08T06:26:51.361Z,4
2016-11-08T06:27:31.887Z,4
2016-11-08T06:28:12.418Z,4
2016-11-08T06:28:52.934Z,4
2016-11-08T06:29:33.461Z,8
2016-11-08T06:30:13.994Z,4
2016-11-08T06:30:54.530Z,4
2016-11-08T06:31:35.050Z,8
2016-11-08T06:32:15.582Z,4
2016-11-08T06:32:56.110Z,4
2016-11-08T06:33:36.654Z,8
2016-11-08T06:34:17.190Z,8
2016-11-08T06:34:57.729Z,12
2016-11-08T06:35:38.231Z,8
2016-11-08T06:36:18.770Z,8
2016-11-08T06:36:59.309Z,8
2016-11-08T06:37:39.821Z,4
2016-11-08T06:38:20.350Z,8
2016-11-08T06:39:00.870Z,8
2016-11-08T06:39:44.037Z,8
2016-11-08T06:40:25.880Z,8
2016-11-08T06:41:07.130Z,8
2016-11-08T06:41:47.677Z,12
2016-11-08T06:42:28.204Z,16
2016-11-08T06:43:08.698Z,16
2016-11-08T06:43:49.220Z,16
2016-11-08T06:44:29.775Z,16
2016-11-08T06:45:10.277Z,20
2016-11-08T06:45:50.807Z,24
2016-11-08T06:46:31.333Z,24
2016-11-08T06:47:11.866Z,24
2016-11-08T06:47:52.387Z,20
2016-11-08T06:48:32.932Z,20
2016-11-08T06:49:13.428Z,24
2016-11-08T06:49:53.957Z,24
2016-11-08T06:50:34.494Z,28
2016-11-08T06:51:15.017Z,32
2016-11-08T06:51:55.545Z,32
2016-11-08T06:52:36.070Z,28
2016-11-08T06:53:16.596Z,36
2016-11-08T06:53:57.120Z,36
2016-11-08T06:54:37.648Z,44
2016-11-08T06:55:18.179Z,44
2016-11-08T06:55:58.733Z,44
2016-11-08T06:56:39.265Z,44
2016-11-08T06:57:19.809Z,48
2016-11-08T06:58:00.310Z,48
2016-11-08T06:58:40.831Z,52
2016-11-08T06:59:21.367Z,52
2016-11-08T07:00:01.878Z,56
2016-11-08T07:00:42.419Z,52
2016-11-08T07:01:22.939Z,56
2016-11-08T07:02:03.479Z,56
2016-11-08T07:02:44.004Z,60
2016-11-08T07:03:24.549Z,64
2016-11-08T07:04:05.074Z,68
2016-11-08T07:04:45.595Z,72
2016-11-08T07:05:26.129Z,72
2016-11-08T07:06:06.653Z,76
2016-11-08T07:06:47.194Z,76
2016-11-08T07:07:27.728Z,84
2016-11-08T07:08:08.241Z,84
2016-11-08T07:08:48.780Z,88
2016-11-08T07:09:29.325Z,88
2016-11-08T07:10:09.845Z,88
2016-11-08T07:10:50.365Z,92
2016-11-08T07:11:30.893Z,92
2016-11-08T07:12:11.431Z,92
2016-11-08T07:12:51.967Z,96
2016-11-08T07:13:32.500Z,96
2016-11-08T07:14:13.015Z,100
2016-11-08T07:14:53.543Z,104
2016-11-08T07:15:34.089Z,104
2016-11-08T07:16:14.622Z,104
2016-11-08T07:16:55.167Z,108
2016-11-08T07:17:35.682Z,104
2016-11-08T07:18:16.189Z,100
2016-11-08T07:18:56.737Z,100
2016-11-08T07:19:37.304Z,96
2016-11-08T07:20:19.600Z,100
2016-11-08T07:21:00.121Z,104
2016-11-08T07:21:40.666Z,100
2016-11-08T07:22:21.192Z,104
2016-11-08T07:23:01.731Z,104
2016-11-08T07:23:42.259Z,104
2016-11-08T07:24:22.877Z,108
2016-11-08T07:25:03.630Z,120
2016-11-08T07:25:43.998Z,132
2016-11-08T07:26:24.521Z,144
2016-11-08T07:27:05.047Z,148
2016-11-08T07:27:45.658Z,156
2016-11-08T07:28:26.202Z,160
2016-11-08T07:29:06.742Z,168
2016-11-08T07:29:47.274Z,180
2016-11-08T07:30:27.817Z,200
2016-11-08T07:31:08.339Z,216
2016-11-08T07:31:48.872Z,236
2016-11-08T07:32:29.405Z,272
2016-11-08T07:33:09.946Z,316
2016-11-08T07:33:50.462Z,360
2016-11-08T07:34:30.987Z,396
2016-11-08T07:35:11.517Z,376
2016-11-08T07:35:52.047Z,356
2016-11-08T07:36:32.571Z,304
2016-11-08T07:37:13.145Z,272
2016-11-08T07:37:53.683Z,248
2016-11-08T07:38:34.201Z,232
2016-11-08T07:39:14.720Z,228
2016-11-08T07:39:55.253Z,228
2016-11-08T07:40:35.792Z,224
2016-11-08T07:41:16.334Z,228
2016-11-08T07:41:56.875Z,236
2016-11-08T07:42:37.398Z,248
2016-11-08T07:43:17.916Z,264
2016-11-08T07:43:58.448Z,300
2016-11-08T07:44:38.976Z,320
2016-11-08T07:45:19.496Z,364
2016-11-08T07:46:00.021Z,420
2016-11-08T07:46:40.553Z,452
2016-11-08T07:47:21.072Z,464
2016-11-08T07:48:01.597Z,472
2016-11-08T07:48:42.129Z,472
2016-11-08T07:49:22.658Z,444
2016-11-08T07:50:03.202Z,424
2016-11-08T07:50:43.742Z,416
2016-11-08T07:51:24.272Z,444
2016-11-08T07:52:04.795Z,508
2016-11-08T07:52:45.318Z,540
2016-11-08T07:53:25.853Z,560
2016-11-08T07:54:06.365Z,548
2016-11-08T07:54:46.983Z,524
2016-11-08T07:55:27.505Z,500
2016-11-08T07:56:08.038Z,468
2016-11-08T07:56:48.571Z,456
2016-11-08T07:57:29.150Z,436
2016-11-08T07:58:09.696Z,412
2016-11-08T07:58:50.224Z,400
2016-11-08T07:59:30.752Z,412
2016-11-08T08:00:11.270Z,428
2016-11-08T08:00:51.812Z,464
2016-11-08T08:01:32.336Z,496
2016-11-08T08:02:12.860Z,528
2016-11-08T08:02:53.375Z,564
2016-11-08T08:03:33.914Z,592
2016-11-08T08:04:14.492Z,612
2016-11-08T08:04:55.012Z,620
2016-11-08T08:05:35.517Z,612
2016-11-08T08:06:16.046Z,596
2016-11-08T08:06:56.579Z,596
2016-11-08T08:07:37.093Z,600
2016-11-08T08:08:17.632Z,620
2016-11-08T08:08:58.160Z,672
2016-11-08T08:09:38.714Z,712
2016-11-08T08:10:19.259Z,704
2016-11-08T08:10:59.769Z,684
2016-11-08T08:11:40.303Z,684
2016-11-08T08:12:20.846Z,720
2016-11-08T08:13:01.441Z,816
2016-11-08T08:13:42.019Z,948
2016-11-08T08:14:22.555Z,1076
2016-11-08T08:15:03.084Z,1228
2016-11-08T08:15:43.611Z,1372
2016-11-08T08:16:24.144Z,1564
2016-11-08T08:17:04.688Z,1784
2016-11-08T08:17:45.203Z,1972
2016-11-08T08:18:25.740Z,2084
2016-11-08T08:19:06.267Z,2092
2016-11-08T08:19:46.791Z,2056
2016-11-08T08:20:27.333Z,1996
2016-11-08T08:21:07.837Z,1944
2016-11-08T08:21:48.350Z,1868
2016-11-08T08:22:28.890Z,1796
2016-11-08T08:23:09.409Z,1712
2016-11-08T08:23:49.932Z,1600
2016-11-08T08:24:30.476Z,1492
2016-11-08T08:25:10.992Z,1412
2016-11-08T08:25:51.521Z,1364
2016-11-08T08:26:32.036Z,1320
2016-11-08T08:27:12.576Z,1252
2016-11-08T08:27:53.099Z,1148
2016-11-08T08:28:33.614Z,1068
2016-11-08T08:29:14.136Z,952
2016-11-08T08:29:54.653Z,780
2016-11-08T08:30:35.208Z,624
2016-11-08T08:31:15.725Z,492
2016-11-08T08:31:56.253Z,388
2016-11-08T08:32:36.763Z,332
2016-11-08T08:33:17.317Z,328
2016-11-08T08:33:57.838Z,344
2016-11-08T08:34:38.376Z,380
2016-11-08T08:35:18.909Z,464
2016-11-08T08:35:59.441Z,664
2016-11-08T08:36:39.980Z,952
2016-11-08T08:37:20.513Z,1276
2016-11-08T08:38:01.031Z,1616
2016-11-08T08:38:41.571Z,1972
2016-11-08T08:39:22.093Z,2240
2016-11-08T08:40:02.631Z,2336
2016-11-08T08:40:43.152Z,2340
2016-11-08T08:41:23.714Z,2328
2016-11-08T08:42:04.251Z,2428
2016-11-08T08:42:44.778Z,2488
2016-11-08T08:43:25.300Z,2552
2016-11-08T08:44:05.825Z,2580
2016-11-08T08:44:46.365Z,2592
2016-11-08T08:45:26.879Z,2528
2016-11-08T08:46:13.820Z,2376
2016-11-08T08:46:54.353Z,2520
2016-11-08T08:47:34.881Z,2632
2016-11-08T08:48:15.398Z,2588
2016-11-08T08:48:55.971Z,2596
2016-11-08T08:49:36.456Z,2660
2016-11-08T08:50:16.981Z,2664
2016-11-08T08:50:57.494Z,2676
2016-11-08T08:51:38.068Z,2656
2016-11-08T08:52:18.583Z,2484
2016-11-08T08:52:59.120Z,1888
2016-11-08T08:53:39.609Z,1356
2016-11-08T08:54:20.140Z,1228
2016-11-08T08:55:00.686Z,1256
2016-11-08T08:55:41.220Z,1320
2016-11-08T08:56:21.753Z,1496
2016-11-08T08:57:02.300Z,1640
2016-11-08T08:57:42.835Z,1612
2016-11-08T08:58:23.364Z,1512
2016-11-08T08:59:03.891Z,1448
2016-11-08T08:59:44.426Z,1296
2016-11-08T09:00:24.969Z,1228
2016-11-08T09:01:05.514Z,1428
2016-11-08T09:01:46.044Z,1464
2016-11-08T09:02:26.556Z,1576
2016-11-08T09:03:07.103Z,1432
2016-11-08T09:03:47.646Z,1380
2016-11-08T09:04:28.188Z,1516
2016-11-08T09:05:08.729Z,1716
2016-11-08T09:05:49.245Z,1868
2016-11-08T09:06:29.771Z,1852
2016-11-08T09:07:10.308Z,1732
2016-11-08T09:07:50.835Z,1728
2016-11-08T09:08:31.328Z,1612
2016-11-08T09:09:11.865Z,1756
2016-11-08T09:09:52.418Z,2088
2016-11-08T09:10:32.956Z,2028
2016-11-08T09:11:13.482Z,1604
2016-11-08T09:11:53.995Z,1284
2016-11-08T09:12:34.512Z,1172
2016-11-08T09:13:15.036Z,1328
2016-11-08T09:13:55.554Z,1536
2016-11-08T09:14:36.083Z,1680
2016-11-08T09:15:16.609Z,1812
2016-11-08T09:15:57.149Z,1964
2016-11-08T09:16:37.687Z,2148
2016-11-08T09:17:18.198Z,2192
2016-11-08T09:17:58.725Z,2140
2016-11-08T09:18:39.229Z,2372
2016-11-08T09:19:19.784Z,2548
2016-11-08T09:20:00.320Z,2640
2016-11-08T09:20:40.839Z,2688
2016-11-08T09:21:21.367Z,2652
2016-11-08T09:22:01.904Z,2748
2016-11-08T09:22:42.433Z,2876
2016-11-08T09:23:22.954Z,2660
2016-11-08T09:24:03.484Z,2320
2016-11-08T09:24:44.019Z,1772
2016-11-08T09:25:24.574Z,1492
2016-11-08T09:26:05.079Z,1580
2016-11-08T09:26:45.619Z,1872
2016-11-08T09:27:26.168Z,2236
2016-11-08T09:28:06.688Z,2108
2016-11-08T09:28:47.215Z,2064
2016-11-08T09:29:27.743Z,2068
2016-11-08T09:30:08.276Z,1888
2016-11-08T09:30:48.810Z,1952
2016-11-08T09:31:29.323Z,2280
2016-11-08T09:32:09.852Z,2280
2016-11-08T09:32:50.379Z,2252
2016-11-08T09:33:30.917Z,2340
2016-11-08T09:34:11.452Z,2488
2016-11-08T09:34:51.974Z,2552
2016-11-08T09:35:32.503Z,2624
2016-11-08T09:36:13.026Z,2288
2016-11-08T09:36:53.578Z,2428
2016-11-08T09:37:34.173Z,2608
2016-11-08T09:38:14.681Z,2820
2016-11-08T09:38:55.207Z,2836
2016-11-08T09:39:35.725Z,2468
2016-11-08T09:40:16.261Z,2064
2016-11-08T09:40:56.808Z,1808
2016-11-08T09:41:37.345Z,1684
2016-11-08T09:42:17.868Z,1512
2016-11-08T09:42:58.389Z,1384
2016-11-08T09:43:38.914Z,1280
2016-11-08T09:44:19.444Z,1200
2016-11-08T09:44:59.981Z,1108
2016-11-08T09:45:40.511Z,956
2016-11-08T09:46:21.049Z,964
2016-11-08T09:47:01.567Z,988
2016-11-08T09:47:42.108Z,944
2016-11-08T09:48:22.640Z,1000
2016-11-08T09:49:03.169Z,996
2016-11-08T09:49:43.683Z,944
2016-11-08T09:50:24.219Z,892
2016-11-08T09:51:04.753Z,956
2016-11-08T09:51:45.299Z,832
2016-11-08T09:52:25.824Z,700
2016-11-08T09:53:06.365Z,676
2016-11-08T09:53:46.892Z,812
2016-11-08T09:54:27.422Z,980
2016-11-08T09:55:07.954Z,1188
2016-11-08T09:55:48.479Z,1364
2016-11-08T09:56:28.997Z,1328
2016-11-08T09:57:09.521Z,1192
2016-11-08T09:57:50.049Z,1092
2016-11-08T09:58:30.588Z,1004
2016-11-08T09:59:11.107Z,1024
2016-11-08T09:59:51.638Z,1148
2016-11-08T10:00:32.183Z,1404
2016-11-08T10:01:12.723Z,1348
2016-11-08T10:01:53.256Z,1324
2016-11-08T10:02:33.989Z,1308
2016-11-08T10:03:14.531Z,1536
2016-11-08T10:03:55.067Z,1888
2016-11-08T10:04:35.596Z,1988
2016-11-08T10:05:16.127Z,2028
2016-11-08T10:05:56.695Z,2228
2016-11-08T10:06:37.233Z,2440
2016-11-08T10:07:17.764Z,2228
2016-11-08T10:07:58.307Z,2240
2016-11-08T10:08:38.821Z,2508
2016-11-08T10:09:19.356Z,2788
2016-11-08T10:09:59.888Z,2748
2016-11-08T10:10:40.429Z,2732
2016-11-08T10:11:20.971Z,2492
2016-11-08T10:12:01.510Z,2408
2016-11-08T10:12:42.040Z,2404
2016-11-08T10:13:22.553Z,2604
2016-11-08T10:14:03.091Z,2772
2016-11-08T10:14:43.607Z,2792
2016-11-08T10:15:24.133Z,2520
2016-11-08T10:16:04.652Z,2340
2016-11-08T10:16:45.188Z,2320
2016-11-08T10:17:25.719Z,2336
2016-11-08T10:18:06.261Z,2336
2016-11-08T10:18:46.781Z,2448
2016-11-08T10:19:27.306Z,2672
2016-11-08T10:20:07.842Z,3004
2016-11-08T10:20:48.375Z,3120
2016-11-08T10:21:28.907Z,2924
2016-11-08T10:22:09.439Z,2980
2016-11-08T10:22:49.956Z,2492
2016-11-08T10:23:30.505Z,2440
2016-11-08T10:24:11.024Z,2744
2016-11-08T10:24:51.551Z,2752
2016-11-08T10:25:32.059Z,2820
2016-11-08T10:26:12.594Z,3132
2016-11-08T10:26:53.120Z,4040
2016-11-08T10:27:33.657Z,4988
2016-11-08T10:28:14.162Z,5224
2016-11-08T10:28:54.699Z,5092